Time;durP1;ratioP1;P1;durP2;ratioP2;P2;SDS_P1;SDS_P2;PMS_P1;PMS_P2;Temp;Humidity;BMP_temperature;BMP_pressure;BME280_temperature;BME280_humidity;BME280_pressure;Samples;Min_cycle;Max_cycle;Signal;HPM_P1;HPM_P2
2023/05/22 00:00:14;;;;;;;4.55;2.50;;;24.00;51.40;;;;;;5027413;28;20061;-65
2023/05/22 00:02:43;;;;;;;3.45;2.80;;;24.00;51.40;;;;;;5018741;28;20026;-65
2023/05/22 00:05:10;;;;;;;3.72;2.75;;;24.00;51.40;;;;;;5018983;28;20108;-65
2023/05/22 00:07:37;;;;;;;3.80;2.60;;;24.00;51.40;;;;;;5021104;28;20105;-65
2023/05/22 00:10:03;;;;;;;3.75;2.40;;;24.00;51.40;;;;;;5020159;28;20021;-65
2023/05/22 00:12:29;;;;;;;3.67;2.78;;;24.00;51.40;;;;;;5018273;28;20503;-65
2023/05/22 00:14:55;;;;;;;3.58;2.65;;;24.00;51.50;;;;;;5019972;28;20055;-65
2023/05/22 00:17:22;;;;;;;3.60;2.60;;;23.90;51.40;;;;;;5022529;28;20022;-65
2023/05/22 00:19:48;;;;;;;3.17;2.50;;;24.00;51.50;;;;;;5019489;28;20075;-66
2023/05/22 00:22:13;;;;;;;3.28;2.60;;;24.00;51.50;;;;;;5018802;28;20038;-65
2023/05/22 00:24:39;;;;;;;3.00;2.55;;;23.90;51.40;;;;;;5019026;28;20414;-65
2023/05/22 00:27:05;;;;;;;2.90;2.40;;;23.90;51.40;;;;;;5017516;28;20571;-65
2023/05/22 00:29:30;;;;;;;3.92;3.00;;;23.90;51.40;;;;;;5017705;28;20030;-66
2023/05/22 00:31:56;;;;;;;3.83;2.80;;;23.90;51.40;;;;;;5018537;28;20117;-65
2023/05/22 00:34:21;;;;;;;3.50;2.70;;;23.90;51.50;;;;;;5019628;28;20474;-65
2023/05/22 00:36:47;;;;;;;3.45;2.60;;;23.90;51.50;;;;;;5020158;28;20163;-65
2023/05/22 00:39:12;;;;;;;3.08;2.40;;;23.90;51.50;;;;;;5022058;28;20037;-65
2023/05/22 00:41:38;;;;;;;3.65;2.40;;;23.90;51.50;;;;;;5020172;28;20030;-65
2023/05/22 00:44:04;;;;;;;3.40;2.50;;;23.90;51.60;;;;;;5018870;28;20113;-65
2023/05/22 00:46:29;;;;;;;3.05;2.30;;;23.90;51.50;;;;;;5016821;28;20034;-65
2023/05/22 00:48:55;;;;;;;3.05;2.47;;;23.90;51.50;;;;;;5020089;28;20135;-65
2023/05/22 00:51:21;;;;;;;3.20;2.60;;;23.90;51.60;;;;;;5021502;28;20030;-65
2023/05/22 00:53:47;;;;;;;3.28;2.40;;;23.90;51.50;;;;;;5023634;28;20032;-65
2023/05/22 00:56:14;;;;;;;2.75;2.40;;;23.90;51.60;;;;;;5024784;28;20500;-65
2023/05/22 00:58:40;;;;;;;2.92;2.25;;;23.90;51.60;;;;;;5022057;28;20517;-65
2023/05/22 01:01:08;;;;;;;3.17;2.50;;;23.90;51.60;;;;;;5022930;28;20022;-66
2023/05/22 01:03:36;;;;;;;3.40;2.53;;;23.90;51.60;;;;;;5021736;28;20022;-65
2023/05/22 01:06:02;;;;;;;3.60;2.88;;;23.90;51.60;;;;;;5021994;28;20426;-65
2023/05/22 01:08:28;;;;;;;3.40;2.42;;;23.90;51.60;;;;;;5021855;28;20040;-65
2023/05/22 01:11:01;;;;;;;3.00;2.50;;;23.90;51.60;;;;;;5021763;28;20042;-65
2023/05/22 01:13:40;;;;;;;3.28;2.58;;;23.90;51.60;;;;;;5023273;28;20517;-65
2023/05/22 01:16:28;;;;;;;3.15;2.45;;;23.80;51.60;;;;;;5023641;28;20105;-65
2023/05/22 01:19:01;;;;;;;3.58;2.67;;;23.80;51.60;;;;;;5020948;28;20534;-65
2023/05/22 01:21:38;;;;;;;3.33;2.55;;;23.80;51.60;;;;;;5022754;28;20400;-65
2023/05/22 01:24:25;;;;;;;3.38;2.63;;;23.80;51.60;;;;;;5029622;28;20017;-65
2023/05/22 01:26:59;;;;;;;3.47;2.70;;;23.80;51.60;;;;;;5024238;28;20449;-65
2023/05/22 01:29:37;;;;;;;3.17;2.40;;;23.80;51.60;;;;;;5020081;28;20021;-65
2023/05/22 01:32:04;;;;;;;3.10;2.60;;;23.80;51.60;;;;;;5022037;28;20034;-65
2023/05/22 01:34:32;;;;;;;3.17;2.42;;;23.80;51.60;;;;;;5021752;28;20022;-65
2023/05/22 01:37:00;;;;;;;3.47;2.63;;;23.80;51.60;;;;;;5020617;28;20476;-65
2023/05/22 01:39:27;;;;;;;3.13;2.40;;;23.80;51.60;;;;;;5021125;28;20362;-65
2023/05/22 01:41:53;;;;;;;3.05;2.47;;;23.80;51.60;;;;;;5021872;28;20282;-65
2023/05/22 01:44:18;;;;;;;2.90;2.47;;;23.80;51.70;;;;;;5022653;28;20026;-65
2023/05/22 01:46:44;;;;;;;3.10;2.35;;;23.80;51.70;;;;;;5020293;28;20029;-65
2023/05/22 01:49:09;;;;;;;2.97;2.50;;;23.80;51.70;;;;;;5023152;28;20079;-65
2023/05/22 01:51:45;;;;;;;3.28;2.58;;;23.70;51.60;;;;;;5020538;28;20109;-65
2023/05/22 01:54:31;;;;;;;2.80;2.47;;;23.70;51.70;;;;;;5020463;28;20100;-65
2023/05/22 01:57:15;;;;;;;3.22;2.50;;;23.70;51.70;;;;;;5021010;28;20508;-65
2023/05/22 01:59:48;;;;;;;3.00;2.42;;;23.70;51.70;;;;;;5018741;28;20054;-65
2023/05/22 02:02:18;;;;;;;3.22;2.30;;;23.70;51.60;;;;;;5020312;28;20458;-65
2023/05/22 02:05:04;;;;;;;2.58;2.13;;;23.70;51.70;;;;;;5020996;28;20038;-65
2023/05/22 02:07:32;;;;;;;3.08;2.30;;;23.70;51.70;;;;;;5019789;28;20034;-65
2023/05/22 02:10:00;;;;;;;3.20;2.50;;;23.70;51.70;;;;;;5023522;28;20033;-65
2023/05/22 02:12:26;;;;;;;2.85;2.40;;;23.70;51.70;;;;;;5021579;28;20095;-65
2023/05/22 02:14:52;;;;;;;2.72;2.17;;;23.70;51.70;;;;;;5018997;28;20022;-65
2023/05/22 02:17:19;;;;;;;3.38;2.53;;;23.70;52.20;;;;;;5022683;28;20032;-65
2023/05/22 02:19:44;;;;;;;3.13;2.55;;;23.70;51.70;;;;;;5019236;28;20481;-65
2023/05/22 02:22:12;;;;;;;3.17;2.40;;;23.70;51.70;;;;;;5019000;28;20125;-65
2023/05/22 02:24:43;;;;;;;3.35;2.42;;;23.70;51.70;;;;;;5017817;28;20069;-65
2023/05/22 02:27:08;;;;;;;3.03;2.30;;;23.70;51.70;;;;;;5022770;28;20485;-65
2023/05/22 02:29:34;;;;;;;3.05;2.50;;;23.70;51.80;;;;;;5018260;28;20056;-65
2023/05/22 02:32:00;;;;;;;2.95;2.42;;;23.70;51.70;;;;;;5020484;28;20030;-65
2023/05/22 02:34:26;;;;;;;2.50;2.10;;;23.70;51.80;;;;;;5022041;28;20022;-65
2023/05/22 02:36:52;;;;;;;3.25;2.40;;;23.70;51.80;;;;;;5020948;28;20108;-65
2023/05/22 02:39:18;;;;;;;3.20;2.50;;;23.70;51.80;;;;;;5020890;28;20106;-65
2023/05/22 02:41:44;;;;;;;3.00;2.42;;;23.60;51.70;;;;;;5021853;28;20377;-65
2023/05/22 02:44:09;;;;;;;2.80;2.30;;;23.70;51.80;;;;;;5022852;28;20116;-65
2023/05/22 02:46:35;;;;;;;3.10;2.33;;;23.60;51.80;;;;;;5019639;28;20026;-65
2023/05/22 02:49:01;;;;;;;2.95;2.35;;;23.60;51.80;;;;;;5022439;28;20030;-65
2023/05/22 02:51:26;;;;;;;3.00;2.30;;;23.60;51.80;;;;;;5018815;28;20079;-65
2023/05/22 02:53:52;;;;;;;2.90;2.50;;;23.60;51.80;;;;;;5019699;28;20537;-65
2023/05/22 02:56:19;;;;;;;2.65;2.28;;;23.60;51.80;;;;;;5019723;28;20493;-65
2023/05/22 02:58:45;;;;;;;3.13;2.20;;;23.60;51.80;;;;;;5020187;28;20030;-65
2023/05/22 03:01:10;;;;;;;2.78;2.40;;;23.60;51.80;;;;;;5021505;28;20044;-65
2023/05/22 03:03:36;;;;;;;3.25;2.50;;;23.60;51.80;;;;;;5018641;28;20104;-65
2023/05/22 03:06:02;;;;;;;2.95;2.20;;;23.60;51.80;;;;;;5017538;28;20113;-65
2023/05/22 03:08:30;;;;;;;2.90;2.30;;;23.60;51.80;;;;;;5017638;28;20018;-65
2023/05/22 03:10:57;;;;;;;3.25;2.45;;;23.60;51.80;;;;;;5018379;28;20021;-65
2023/05/22 03:13:22;;;;;;;2.75;2.15;;;23.60;51.90;;;;;;5020554;28;20044;-65
2023/05/22 03:15:48;;;;;;;3.08;2.50;;;23.60;51.80;;;;;;5019660;28;20454;-65
2023/05/22 03:18:15;;;;;;;2.80;2.20;;;23.60;51.90;;;;;;5022223;28;20022;-65
2023/05/22 03:20:40;;;;;;;2.65;2.15;;;23.50;51.80;;;;;;5018746;28;20060;-65
2023/05/22 03:23:06;;;;;;;3.38;2.50;;;23.60;51.90;;;;;;5021426;28;20052;-67
2023/05/22 03:25:31;;;;;;;2.70;2.30;;;23.50;51.80;;;;;;5022005;28;20088;-67
2023/05/22 03:27:57;;;;;;;3.13;2.47;;;23.50;51.80;;;;;;5018869;28;20109;-67
2023/05/22 03:30:23;;;;;;;3.60;2.30;;;23.50;51.80;;;;;;5022614;28;20029;-67
2023/05/22 03:32:48;;;;;;;2.90;2.45;;;23.50;51.90;;;;;;5018193;28;20469;-67
2023/05/22 03:35:18;;;;;;;2.90;2.40;;;23.50;51.90;;;;;;5019229;28;20018;-67
2023/05/22 03:37:44;;;;;;;3.03;2.40;;;23.50;51.90;;;;;;5019463;28;20030;-67
2023/05/22 03:40:11;;;;;;;2.80;2.10;;;23.50;51.90;;;;;;5019016;28;20480;-67
2023/05/22 03:42:37;;;;;;;2.80;2.30;;;23.50;51.90;;;;;;5020634;28;20386;-67
2023/05/22 03:45:03;;;;;;;3.03;2.30;;;23.50;51.90;;;;;;5022708;28;20101;-67
2023/05/22 03:47:28;;;;;;;3.13;2.50;;;23.50;51.90;;;;;;5020047;28;20026;-67
2023/05/22 03:49:54;;;;;;;2.70;2.25;;;23.50;51.90;;;;;;5021397;28;20044;-67
2023/05/22 03:52:21;;;;;;;3.00;2.20;;;23.50;51.90;;;;;;5018050;28;20466;-67
2023/05/22 03:54:46;;;;;;;2.92;2.30;;;23.50;51.90;;;;;;5020677;28;20418;-67
2023/05/22 03:57:12;;;;;;;3.05;2.25;;;23.50;51.90;;;;;;5019814;28;20022;-67
2023/05/22 03:59:38;;;;;;;3.13;2.50;;;23.50;51.90;;;;;;5020316;28;20136;-67
2023/05/22 04:02:04;;;;;;;2.90;2.38;;;23.50;51.90;;;;;;5025779;28;20116;-67
2023/05/22 04:04:32;;;;;;;2.80;2.28;;;23.50;52.00;;;;;;5020722;28;20029;-67
2023/05/22 04:06:58;;;;;;;3.08;2.45;;;23.50;52.00;;;;;;5017697;28;20117;-67
2023/05/22 04:09:30;;;;;;;2.75;2.15;;;23.50;52.00;;;;;;5016520;28;20168;-67
2023/05/22 04:11:55;;;;;;;2.95;2.20;;;23.50;52.00;;;;;;5019176;28;20457;-67
2023/05/22 04:14:21;;;;;;;3.08;2.20;;;23.50;52.00;;;;;;5018365;28;20025;-67
2023/05/22 04:16:47;;;;;;;2.88;2.28;;;23.40;51.90;;;;;;5019793;28;20025;-67
2023/05/22 04:19:12;;;;;;;2.92;2.15;;;23.50;52.50;;;;;;5019505;28;20030;-67
2023/05/22 04:21:38;;;;;;;2.67;2.38;;;23.40;52.00;;;;;;5018503;28;20026;-67
2023/05/22 04:24:05;;;;;;;2.70;2.20;;;23.50;52.00;;;;;;5019175;28;20455;-67
2023/05/22 04:26:36;;;;;;;3.53;2.67;;;23.40;52.00;;;;;;5014055;28;20076;-67
2023/05/22 04:29:02;;;;;;;2.88;2.45;;;23.40;52.00;;;;;;5017841;28;20533;-67
2023/05/22 04:31:28;;;;;;;2.90;2.50;;;23.40;52.00;;;;;;5020369;28;20103;-67
2023/05/22 04:33:55;;;;;;;3.60;2.40;;;23.40;52.00;;;;;;5016099;28;20088;-67
2023/05/22 04:36:24;;;;;;;3.10;2.42;;;23.40;52.00;;;;;;5020707;28;20046;-67
2023/05/22 04:38:50;;;;;;;;;;;23.40;52.00;;;;;;5019117;28;20104;-67
2023/05/22 04:41:21;;;;;;;2.90;2.30;;;23.40;52.00;;;;;;5021597;28;20314;-67
2023/05/22 04:43:49;;;;;;;2.63;2.28;;;23.40;51.90;;;;;;5017309;28;20037;-67
2023/05/22 04:46:15;;;;;;;2.80;2.30;;;23.40;51.90;;;;;;5017584;28;20033;-67
2023/05/22 04:48:40;;;;;;;3.40;2.40;;;23.40;51.90;;;;;;5019733;28;20026;-67
2023/05/22 04:51:06;;;;;;;3.05;2.38;;;23.40;52.40;;;;;;5018902;28;20025;-67
2023/05/22 04:53:32;;;;;;;3.17;2.42;;;23.40;51.90;;;;;;5016519;28;20033;-67
2023/05/22 04:55:58;;;;;;;2.70;2.20;;;23.40;51.90;;;;;;5020578;28;20026;-67
2023/05/22 04:58:26;;;;;;;2.72;2.05;;;23.40;51.90;;;;;;5018057;28;20482;-67
2023/05/22 05:00:52;;;;;;;2.88;2.17;;;23.40;51.90;;;;;;5019736;28;20022;-67
2023/05/22 05:03:18;;;;;;;3.80;2.10;;;23.40;51.90;;;;;;5017100;28;20131;-67
2023/05/22 05:05:44;;;;;;;3.20;2.20;;;23.40;51.90;;;;;;5019781;28;20053;-67
2023/05/22 05:08:10;;;;;;;3.08;2.58;;;23.40;51.90;;;;;;5018705;28;20476;-67
2023/05/22 05:10:36;;;;;;;2.70;2.30;;;23.40;51.90;;;;;;5020846;28;20040;-67
2023/05/22 05:13:02;;;;;;;2.90;2.28;;;23.40;51.90;;;;;;5019554;28;20026;-67
2023/05/22 05:15:28;;;;;;;3.10;2.30;;;23.40;51.90;;;;;;5016160;28;20026;-68
2023/05/22 05:17:54;;;;;;;2.70;2.20;;;23.40;51.90;;;;;;5018636;28;20468;-67
2023/05/22 05:20:20;;;;;;;3.17;2.40;;;23.30;51.80;;;;;;5019269;28;20048;-67
2023/05/22 05:22:46;;;;;;;3.50;2.72;;;23.40;51.90;;;;;;5018180;28;20033;-67
2023/05/22 05:25:12;;;;;;;2.70;2.15;;;23.30;51.80;;;;;;5020398;28;20064;-67
2023/05/22 05:27:37;;;;;;;3.22;2.13;;;23.30;51.90;;;;;;5019999;28;20105;-67
2023/05/22 05:30:03;;;;;;;2.70;2.15;;;23.40;51.90;;;;;;5017791;28;20104;-67
2023/05/22 05:32:29;;;;;;;2.90;2.40;;;23.40;51.90;;;;;;5019006;28;20049;-67
2023/05/22 05:34:55;;;;;;;2.65;2.30;;;23.40;51.90;;;;;;5019328;28;20049;-67
2023/05/22 05:37:21;;;;;;;2.85;2.30;;;23.40;51.90;;;;;;5020953;28;20026;-67
2023/05/22 05:39:47;;;;;;;2.85;2.30;;;23.40;51.90;;;;;;5021561;28;20042;-67
2023/05/22 05:42:13;;;;;;;3.15;2.55;;;23.40;51.90;;;;;;5020602;28;20378;-67
2023/05/22 05:44:38;;;;;;;2.88;2.20;;;23.30;51.90;;;;;;5025000;28;20493;-67
2023/05/22 05:47:05;;;;;;;2.85;2.38;;;23.40;52.00;;;;;;5021566;28;20025;-67
2023/05/22 05:49:30;;;;;;;3.15;2.30;;;23.40;52.10;;;;;;5019190;28;20478;-66
2023/05/22 05:51:56;;;;;;;2.88;2.28;;;23.40;52.00;;;;;;5019364;28;20167;-67
2023/05/22 05:54:22;;;;;;;2.60;2.25;;;23.50;51.90;;;;;;5021094;28;20026;-67
2023/05/22 05:56:47;;;;;;;3.30;2.70;;;23.60;51.80;;;;;;5021799;28;20112;-66
2023/05/22 05:59:13;;;;;;;3.03;2.60;;;23.70;51.60;;;;;;5023759;28;20534;-65
2023/05/22 06:01:43;;;;;;;3.42;2.70;;;23.70;51.50;;;;;;5020912;28;20056;-66
2023/05/22 06:04:08;;;;;;;3.20;2.75;;;23.80;51.40;;;;;;5020462;28;20109;-66
2023/05/22 06:06:34;;;;;;;3.90;2.97;;;23.90;51.20;;;;;;5020408;28;20200;-66
2023/05/22 06:09:05;;;;;;;3.65;3.03;;;24.00;51.10;;;;;;5021433;28;20018;-67
2023/05/22 06:11:31;;;;;;;3.72;3.15;;;24.10;51.00;;;;;;5020893;28;20034;-65
2023/05/22 06:13:58;;;;;;;4.03;3.20;;;24.20;50.80;;;;;;5024520;28;20136;-65
2023/05/22 06:16:24;;;;;;;3.80;2.92;;;24.20;50.60;;;;;;5018391;28;20562;-65
2023/05/22 06:18:51;;;;;;;4.00;3.08;;;24.30;50.50;;;;;;5018298;28;20446;-65
2023/05/22 06:21:19;;;;;;;3.58;2.88;;;24.40;50.40;;;;;;5022331;28;20469;-68
2023/05/22 06:23:46;;;;;;;3.08;2.70;;;24.50;50.30;;;;;;5021036;28;20038;-67
2023/05/22 06:26:12;;;;;;;3.35;2.95;;;24.50;50.20;;;;;;5022357;28;20040;-66
2023/05/22 06:28:38;;;;;;;3.30;2.90;;;24.50;50.20;;;;;;5022408;28;20398;-66
2023/05/22 06:31:04;;;;;;;3.17;2.80;;;24.50;50.20;;;;;;5022087;28;20389;-66
2023/05/22 06:33:30;;;;;;;3.42;2.85;;;24.50;50.20;;;;;;5023760;28;20034;-66
2023/05/22 06:35:56;;;;;;;3.67;2.70;;;24.50;50.20;;;;;;5019396;28;20041;-66
2023/05/22 06:38:22;;;;;;;3.30;2.83;;;24.50;50.20;;;;;;5019279;28;20030;-66
2023/05/22 06:40:47;;;;;;;3.20;2.75;;;24.50;50.10;;;;;;5021939;28;20022;-67
2023/05/22 06:43:13;;;;;;;3.58;3.08;;;24.50;50.10;;;;;;5021308;28;20083;-67
2023/05/22 06:45:38;;;;;;;3.10;2.80;;;24.50;50.10;;;;;;5036007;28;20022;-65
2023/05/22 06:48:05;;;;;;;4.13;3.20;;;24.50;50.10;;;;;;5017633;28;20431;-65
2023/05/22 06:50:30;;;;;;;3.40;2.97;;;24.60;50.10;;;;;;5025027;28;20716;-65
2023/05/22 06:52:56;;;;;;;3.08;2.60;;;24.60;50.20;;;;;;5020163;28;20104;-66
2023/05/22 06:55:22;;;;;;;3.92;3.00;;;24.60;50.10;;;;;;5020812;28;20026;-66
2023/05/22 06:57:47;;;;;;;3.13;2.67;;;24.60;50.10;;;;;;5020265;28;20068;-66
2023/05/22 07:00:14;;;;;;;3.55;3.10;;;24.60;50.10;;;;;;5018861;28;20437;-66
2023/05/22 07:02:39;;;;;;;4.00;2.65;;;24.60;50.10;;;;;;5021047;28;20038;-67
2023/05/22 07:05:05;;;;;;;3.50;2.80;;;24.60;50.10;;;;;;5017683;28;20032;-67
2023/05/22 07:07:31;;;;;;;3.10;2.58;;;24.60;50.10;;;;;;5020184;28;20057;-66
2023/05/22 07:09:57;;;;;;;3.28;2.63;;;24.60;50.10;;;;;;5020178;28;20026;-67
2023/05/22 07:12:24;;;;;;;3.38;2.65;;;24.70;50.20;;;;;;5021122;28;20068;-66
2023/05/22 07:14:51;;;;;;;3.42;2.50;;;24.70;50.10;;;;;;5022249;28;20025;-66
2023/05/22 07:17:19;;;;;;;2.92;2.38;;;24.70;50.10;;;;;;5018595;28;20105;-65
2023/05/22 07:19:44;;;;;;;2.80;2.38;;;24.60;50.20;;;;;;5020934;28;20520;-66
2023/05/22 07:22:10;;;;;;;2.78;2.25;;;24.70;50.30;;;;;;5018435;28;20057;-67
2023/05/22 07:24:36;;;;;;;2.80;2.25;;;24.70;50.30;;;;;;5019687;28;20041;-67
2023/05/22 07:27:03;;;;;;;3.10;2.55;;;24.60;50.30;;;;;;5019164;28;20044;-67
2023/05/22 07:29:28;;;;;;;2.90;2.20;;;24.70;50.30;;;;;;5020709;28;20116;-69
2023/05/22 07:31:54;;;;;;;3.33;2.40;;;24.70;50.30;;;;;;5020348;28;20068;-66
2023/05/22 07:34:21;;;;;;;4.15;2.53;;;24.70;50.40;;;;;;5020690;28;20026;-67
2023/05/22 07:36:47;;;;;;;3.45;2.22;;;24.70;50.50;;;;;;5018685;28;20032;-67
2023/05/22 07:39:13;;;;;;;2.75;2.20;;;24.70;50.50;;;;;;5019440;28;20040;-67
2023/05/22 07:41:39;;;;;;;2.70;2.17;;;24.70;50.50;;;;;;5017775;28;20050;-67
2023/05/22 07:44:04;;;;;;;2.80;2.17;;;24.80;50.60;;;;;;5022373;28;20518;-66
2023/05/22 07:46:30;;;;;;;3.03;2.33;;;24.70;50.50;;;;;;5021989;28;20168;-66
2023/05/22 07:48:56;;;;;;;2.60;2.20;;;24.80;50.50;;;;;;5018712;28;20033;-66
2023/05/22 07:51:21;;;;;;;3.13;2.40;;;24.80;50.50;;;;;;5018360;28;20104;-66
2023/05/22 07:53:47;;;;;;;2.97;2.38;;;24.80;50.50;;;;;;5019735;28;20040;-66
2023/05/22 07:56:12;;;;;;;2.90;2.28;;;24.80;50.40;;;;;;5020358;28;20492;-66
2023/05/22 07:58:38;;;;;;;3.22;2.70;;;24.80;50.40;;;;;;5019529;28;20114;-66
2023/05/22 08:01:06;;;;;;;3.38;2.40;;;24.80;50.30;;;;;;5018018;28;20041;-66
2023/05/22 08:03:32;;;;;;;3.20;2.40;;;24.80;50.30;;;;;;5019795;28;20022;-66
2023/05/22 08:05:58;;;;;;;2.75;2.30;;;24.80;50.20;;;;;;5016898;28;20033;-66
2023/05/22 08:08:23;;;;;;;3.20;2.75;;;24.80;50.20;;;;;;5019826;28;20040;-66
2023/05/22 08:10:49;;;;;;;3.50;2.90;;;24.80;50.20;;;;;;5019451;28;20041;-66
2023/05/22 08:13:17;;;;;;;3.40;2.60;;;24.80;50.20;;;;;;5015552;28;20030;-66
2023/05/22 08:15:43;;;;;;;2.70;2.30;;;24.90;50.20;;;;;;5018489;28;20109;-67
2023/05/22 08:18:09;;;;;;;3.38;2.60;;;24.80;50.20;;;;;;5018915;28;20128;-66
2023/05/22 08:20:34;;;;;;;3.35;2.30;;;24.80;50.30;;;;;;5018779;28;20021;-67
2023/05/22 08:23:00;;;;;;;2.95;2.20;;;24.80;50.20;;;;;;5017437;28;20030;-66
2023/05/22 08:25:25;;;;;;;2.92;2.22;;;24.80;50.40;;;;;;5019499;28;20060;-66
2023/05/22 08:27:51;;;;;;;2.83;2.22;;;24.80;50.30;;;;;;5020041;28;20079;-66
2023/05/22 08:30:17;;;;;;;3.00;2.40;;;24.80;50.30;;;;;;5018133;28;20030;-66
2023/05/22 08:32:42;;;;;;;2.63;2.20;;;24.80;50.30;;;;;;5019960;28;20401;-66
2023/05/22 08:35:08;;;;;;;3.80;2.83;;;24.80;50.40;;;;;;5018045;28;20028;-66
2023/05/22 08:37:34;;;;;;;2.90;2.33;;;24.80;50.40;;;;;;5026067;28;20092;-66
2023/05/22 08:40:00;;;;;;;2.47;2.20;;;24.80;50.40;;;;;;5019887;28;20094;-66
2023/05/22 08:42:26;;;;;;;2.83;2.40;;;24.90;50.40;;;;;;5021026;28;20094;-66
2023/05/22 08:44:54;;;;;;;2.88;2.38;;;24.90;50.40;;;;;;5015578;28;20117;-66
2023/05/22 08:47:22;;;;;;;3.15;2.30;;;24.90;50.30;;;;;;5016571;28;20028;-66
2023/05/22 08:49:50;;;;;;;3.90;2.60;;;24.90;50.40;;;;;;5019940;28;20021;-66
2023/05/22 08:52:22;;;;;;;2.90;2.38;;;24.90;50.30;;;;;;5020593;28;20153;-66
2023/05/22 08:54:54;;;;;;;2.80;2.30;;;24.90;50.30;;;;;;5017573;28;20164;-66
2023/05/22 08:57:20;;;;;;;3.42;2.78;;;24.90;50.30;;;;;;5020187;28;20493;-66
2023/05/22 08:59:47;;;;;;;3.50;2.65;;;24.90;50.30;;;;;;5019119;28;20025;-66
2023/05/22 09:02:13;;;;;;;3.10;2.50;;;24.90;50.30;;;;;;5020554;28;20144;-66
2023/05/22 09:04:41;;;;;;;3.63;2.70;;;24.90;50.30;;;;;;5018451;28;20017;-66
2023/05/22 09:07:07;;;;;;;4.78;2.90;;;24.90;50.20;;;;;;5018741;28;20040;-66
2023/05/22 09:09:37;;;;;;;3.00;2.60;;;24.90;50.20;;;;;;5019656;28;20591;-66
2023/05/22 09:12:05;;;;;;;3.10;2.60;;;25.00;50.30;;;;;;5019376;28;20026;-66
2023/05/22 09:14:38;;;;;;;2.95;2.50;;;25.00;50.30;;;;;;5023724;28;20466;-66
2023/05/22 09:17:04;;;;;;;3.20;2.67;;;24.90;50.20;;;;;;5022300;28;20022;-66
2023/05/22 09:19:29;;;;;;;3.97;2.92;;;25.00;50.30;;;;;;5023052;28;20220;-66
2023/05/22 09:22:05;;;;;;;3.33;2.58;;;25.00;50.30;;;;;;5029513;28;20126;-66
2023/05/22 09:24:37;;;;;;;3.72;2.92;;;25.00;50.30;;;;;;5021313;28;20401;-66
2023/05/22 09:27:05;;;;;;;3.00;2.70;;;25.00;50.30;;;;;;5021439;28;20037;-66
2023/05/22 09:29:31;;;;;;;3.20;2.60;;;25.00;50.30;;;;;;5021420;28;20510;-66
2023/05/22 09:31:58;;;;;;;3.50;2.78;;;25.00;50.30;;;;;;5021658;28;20117;-66
2023/05/22 09:34:31;;;;;;;3.42;2.63;;;25.00;50.30;;;;;;5026536;28;20044;-66
2023/05/22 09:37:04;;;;;;;3.50;2.38;;;25.00;50.30;;;;;;5024232;28;20013;-66
2023/05/22 09:39:42;;;;;;;3.53;2.40;;;25.00;50.30;;;;;;5021705;28;20040;-66
2023/05/22 09:42:10;;;;;;;3.03;2.60;;;25.00;50.30;;;;;;5035944;28;20072;-66
2023/05/22 09:44:36;;;;;;;5.40;3.70;;;25.00;50.30;;;;;;5021296;28;20059;-66
2023/05/22 09:47:02;;;;;;;5.05;3.90;;;25.00;50.30;;;;;;5021967;28;20052;-66
2023/05/22 09:49:28;;;;;;;6.63;4.97;;;25.00;50.30;;;;;;5023956;28;20030;-66
2023/05/22 09:51:54;;;;;;;6.18;5.20;;;25.00;50.30;;;;;;5024501;28;20056;-66
2023/05/22 09:54:24;;;;;;;7.72;6.32;;;25.00;50.30;;;;;;5020503;28;20047;-66
2023/05/22 09:56:54;;;;;;;9.77;6.80;;;25.00;50.30;;;;;;5020865;28;20490;-66
2023/05/22 09:59:21;;;;;;;11.63;7.22;;;25.00;50.30;;;;;;5022012;28;20025;-66
2023/05/22 10:01:49;;;;;;;9.30;7.18;;;25.00;50.30;;;;;;5020667;28;20524;-66
2023/05/22 10:04:17;;;;;;;9.60;7.32;;;25.00;50.30;;;;;;5023436;28;20044;-66
2023/05/22 10:06:49;;;;;;;10.27;7.88;;;25.10;50.40;;;;;;5020864;28;20029;-66
2023/05/22 10:09:16;;;;;;;10.10;7.57;;;25.10;50.40;;;;;;5019660;28;20033;-66
2023/05/22 10:11:43;;;;;;;11.00;9.02;;;25.10;50.90;;;;;;5029600;28;20032;-66
2023/05/22 10:14:10;;;;;;;11.05;8.75;;;25.10;50.40;;;;;;5022343;28;20044;-66
2023/05/22 10:16:38;;;;;;;10.88;8.18;;;25.10;50.40;;;;;;5021485;28;20029;-66
2023/05/22 10:19:05;;;;;;;10.68;8.48;;;25.10;50.30;;;;;;5021487;28;20029;-66
2023/05/22 10:21:32;;;;;;;10.32;8.10;;;25.10;50.30;;;;;;5019554;28;20454;-66
2023/05/22 10:24:01;;;;;;;11.55;9.00;;;25.10;50.40;;;;;;5020363;28;20092;-66
2023/05/22 10:26:28;;;;;;;11.18;8.80;;;25.10;50.40;;;;;;5016688;28;20486;-66
2023/05/22 10:29:10;;;;;;;10.60;8.70;;;25.10;50.40;;;;;;5021832;28;20075;-66
2023/05/22 10:31:49;;;;;;;10.93;8.63;;;25.10;50.40;;;;;;5019689;28;20037;-66
2023/05/22 10:34:41;;;;;;;11.73;9.05;;;25.10;50.30;;;;;;5022179;28;20029;-66
2023/05/22 10:37:19;;;;;;;11.25;9.15;;;25.10;50.40;;;;;;5011171;28;20037;-66
2023/05/22 10:40:01;;;;;;;11.77;8.55;;;25.10;50.40;;;;;;5021388;28;20510;-66
2023/05/22 10:42:32;;;;;;;11.18;8.52;;;25.10;50.40;;;;;;5021708;28;20034;-66
2023/05/22 10:45:03;;;;;;;10.85;8.30;;;25.10;50.40;;;;;;5022595;28;20136;-66
2023/05/22 10:47:31;;;;;;;10.15;8.25;;;25.10;50.40;;;;;;5019226;28;20022;-66
2023/05/22 10:50:06;;;;;;;9.10;7.83;;;25.10;50.40;;;;;;5019819;28;20036;-66
2023/05/22 10:52:32;;;;;;;9.88;8.20;;;25.10;50.40;;;;;;5021977;28;20025;-67
2023/05/22 10:55:00;;;;;;;10.90;8.18;;;25.10;50.40;;;;;;5016459;28;20049;-66
2023/05/22 10:57:31;;;;;;;11.43;8.38;;;25.00;50.40;;;;;;5021807;28;20018;-66
2023/05/22 11:00:11;;;;;;;10.50;7.55;;;25.00;50.40;;;;;;5040261;28;20025;-67
2023/05/22 11:02:44;;;;;;;9.95;8.07;;;25.00;50.40;;;;;;5020762;28;20022;-66
2023/05/22 11:05:20;;;;;;;8.38;7.25;;;25.00;50.40;;;;;;5024073;28;20119;-66
2023/05/22 11:07:46;;;;;;;9.30;7.60;;;25.00;50.50;;;;;;5026617;28;20045;-67
2023/05/22 11:10:12;;;;;;;10.82;8.13;;;25.00;50.50;;;;;;5018239;28;20029;-67
2023/05/22 11:12:37;;;;;;;9.85;7.85;;;25.00;50.50;;;;;;5019784;28;20033;-66
2023/05/22 11:15:08;;;;;;;10.98;8.32;;;25.00;50.50;;;;;;5019859;28;20108;-66
2023/05/22 11:17:43;;;;;;;8.75;7.40;;;25.00;50.40;;;;;;5023192;28;20021;-66
2023/05/22 11:20:23;;;;;;;9.43;7.57;;;25.00;50.50;;;;;;5019914;28;20044;-66
2023/05/22 11:22:50;;;;;;;9.43;7.50;;;25.00;50.50;;;;;;5021640;28;20056;-66
2023/05/22 11:25:17;;;;;;;9.07;7.25;;;24.90;50.50;;;;;;5016746;28;20026;-66
2023/05/22 11:27:45;;;;;;;8.57;6.90;;;24.90;50.50;;;;;;5017236;28;20108;-66
2023/05/22 11:30:11;;;;;;;9.20;7.13;;;24.90;50.60;;;;;;5021948;28;20025;-66
2023/05/22 11:32:39;;;;;;;10.25;7.28;;;24.90;50.60;;;;;;5014645;28;20034;-66
2023/05/22 11:35:07;;;;;;;8.05;6.88;;;24.90;50.60;;;;;;5020784;28;20272;-66
2023/05/22 11:37:36;;;;;;;8.50;6.97;;;24.90;50.60;;;;;;5019530;28;20470;-66
2023/05/22 11:40:04;;;;;;;8.73;6.88;;;24.90;50.60;;;;;;5034228;28;20490;-66
2023/05/22 11:42:30;;;;;;;7.78;6.57;;;24.90;50.70;;;;;;5018580;28;20087;-66
2023/05/22 11:44:56;;;;;;;8.68;6.82;;;24.90;50.70;;;;;;5020279;28;20490;-66
2023/05/22 11:47:22;;;;;;;7.53;6.70;;;24.90;50.70;;;;;;5019414;28;20045;-66
2023/05/22 11:49:47;;;;;;;8.23;6.60;;;24.90;50.70;;;;;;5021019;28;20393;-66
2023/05/22 11:52:15;;;;;;;7.18;6.40;;;24.90;50.70;;;;;;5018891;28;20036;-66
2023/05/22 11:54:47;;;;;;;8.10;6.18;;;24.90;50.80;;;;;;5018538;28;20040;-66
2023/05/22 11:57:14;;;;;;;7.43;6.10;;;24.90;50.80;;;;;;5019391;28;20481;-66
2023/05/22 11:59:46;;;;;;;7.70;6.65;;;24.90;50.90;;;;;;5021325;28;20171;-66
2023/05/22 12:02:15;;;;;;;8.10;6.65;;;24.90;51.00;;;;;;5017186;28;20101;-66
2023/05/22 12:04:40;;;;;;;7.10;5.93;;;24.90;50.90;;;;;;5019081;28;20041;-66
2023/05/22 12:07:07;;;;;;;7.80;6.00;;;24.80;50.90;;;;;;5019997;28;20394;-66
2023/05/22 12:09:33;;;;;;;7.47;5.95;;;24.90;51.00;;;;;;5018531;28;20025;-66
2023/05/22 12:11:58;;;;;;;6.93;5.82;;;24.80;50.90;;;;;;5021507;28;20041;-66
2023/05/22 12:14:28;;;;;;;6.70;5.70;;;24.80;50.90;;;;;;5017525;28;20061;-66
2023/05/22 12:16:56;;;;;;;6.72;5.82;;;24.80;50.90;;;;;;5019241;28;20021;-66
2023/05/22 12:19:24;;;;;;;7.22;6.15;;;24.90;50.90;;;;;;5020516;28;20049;-66
2023/05/22 12:21:51;;;;;;;6.40;5.80;;;24.80;50.80;;;;;;5019127;28;20036;-66
2023/05/22 12:24:22;;;;;;;6.00;5.25;;;24.90;50.80;;;;;;5016661;28;20486;-66
2023/05/22 12:26:55;;;;;;;6.80;5.97;;;24.90;50.80;;;;;;5019664;28;20018;-66
2023/05/22 12:29:24;;;;;;;6.63;5.38;;;24.90;50.80;;;;;;5018194;28;20132;-66
2023/05/22 12:31:50;;;;;;;5.93;5.22;;;24.90;50.70;;;;;;5017806;28;20556;-66
2023/05/22 12:34:17;;;;;;;6.45;4.70;;;24.90;50.80;;;;;;5017840;28;20034;-66
2023/05/22 12:36:44;;;;;;;6.13;4.68;;;24.90;50.70;;;;;;5022365;28;20030;-66
2023/05/22 12:39:15;;;;;;;7.22;5.15;;;24.90;50.70;;;;;;5018793;28;20022;-66
2023/05/22 12:41:40;;;;;;;5.75;4.50;;;24.90;50.70;;;;;;5018578;28;20389;-66
2023/05/22 12:44:06;;;;;;;5.00;4.50;;;24.80;50.70;;;;;;5017769;28;20030;-66
2023/05/22 12:46:33;;;;;;;5.30;4.78;;;24.80;50.70;;;;;;5018798;28;20060;-65